sensor_id;sensor_type;location;lat;lon;timestamp;temperature;humidity
61641;HTU21D;62201;49.966;8.342;2023-09-18T00:01:46;20.90;118.99
61641;HTU21D;62201;49.966;8.342;2023-09-18T00:04:11;20.85;118.99
61641;HTU21D;62201;49.966;8.342;2023-09-18T00:06:37;20.81;118.99
61641;HTU21D;62201;49.966;8.342;2023-09-18T00:09:02;20.74;118.99
61641;HTU21D;62201;49.966;8.342;2023-09-18T00:11:28;20.75;118.99
61641;HTU21D;62201;49.966;8.342;2023-09-18T00:13:53;20.68;118.99
61641;HTU21D;62201;49.966;8.342;2023-09-18T00:16:18;20.63;118.99
61641;HTU21D;62201;49.966;8.342;2023-09-18T00:18:44;20.61;118.99
61641;HTU21D;62201;49.966;8.342;2023-09-18T00:21:10;20.55;118.99
61641;HTU21D;62201;49.966;8.342;2023-09-18T00:23:38;20.46;118.99
61641;HTU21D;62201;49.966;8.342;2023-09-18T00:26:04;20.48;118.99
61641;HTU21D;62201;49.966;8.342;2023-09-18T00:28:29;20.59;118.99
61641;HTU21D;62201;49.966;8.342;2023-09-18T00:30:55;20.63;118.99
61641;HTU21D;62201;49.966;8.342;2023-09-18T00:33:20;20.66;118.99
61641;HTU21D;62201;49.966;8.342;2023-09-18T00:35:47;20.65;118.99
61641;HTU21D;62201;49.966;8.342;2023-09-18T00:38:13;20.62;118.99
61641;HTU21D;62201;49.966;8.342;2023-09-18T00:40:38;20.61;118.99
61641;HTU21D;62201;49.966;8.342;2023-09-18T00:43:04;20.68;118.99
61641;HTU21D;62201;49.966;8.342;2023-09-18T00:45:29;20.75;118.99
61641;HTU21D;62201;49.966;8.342;2023-09-18T00:47:55;20.79;118.99
61641;HTU21D;62201;49.966;8.342;2023-09-18T00:50:20;20.77;118.99
61641;HTU21D;62201;49.966;8.342;2023-09-18T00:52:47;20.76;118.99
61641;HTU21D;62201;49.966;8.342;2023-09-18T00:55:13;20.75;118.99
61641;HTU21D;62201;49.966;8.342;2023-09-18T00:57:38;20.85;118.99
61641;HTU21D;62201;49.966;8.342;2023-09-18T01:00:05;20.79;118.99
61641;HTU21D;62201;49.966;8.342;2023-09-18T01:02:31;20.87;118.99
61641;HTU21D;62201;49.966;8.342;2023-09-18T01:04:57;20.78;118.99
61641;HTU21D;62201;49.966;8.342;2023-09-18T01:07:23;20.77;118.99
61641;HTU21D;62201;49.966;8.342;2023-09-18T01:09:48;20.83;118.99
61641;HTU21D;62201;49.966;8.342;2023-09-18T01:12:29;20.84;118.99
61641;HTU21D;62201;49.966;8.342;2023-09-18T01:15:30;20.79;118.99
61641;HTU21D;62201;49.966;8.342;2023-09-18T01:17:57;20.74;118.99
61641;HTU21D;62201;49.966;8.342;2023-09-18T01:20:23;20.60;118.99
61641;HTU21D;62201;49.966;8.342;2023-09-18T01:22:49;20.48;118.99
61641;HTU21D;62201;49.966;8.342;2023-09-18T01:25:15;20.42;118.99
61641;HTU21D;62201;49.966;8.342;2023-09-18T01:27:40;20.39;118.99
61641;HTU21D;62201;49.966;8.342;2023-09-18T01:30:06;20.35;118.99
61641;HTU21D;62201;49.966;8.342;2023-09-18T01:32:32;20.31;118.99
61641;HTU21D;62201;49.966;8.342;2023-09-18T01:35:01;20.32;118.99
61641;HTU21D;62201;49.966;8.342;2023-09-18T01:37:29;20.28;118.99
61641;HTU21D;62201;49.966;8.342;2023-09-18T01:39:55;20.28;118.99
61641;HTU21D;62201;49.966;8.342;2023-09-18T01:42:25;20.32;118.99
61641;HTU21D;62201;49.966;8.342;2023-09-18T01:44:52;20.34;118.99
61641;HTU21D;62201;49.966;8.342;2023-09-18T01:47:19;20.29;118.99
61641;HTU21D;62201;49.966;8.342;2023-09-18T01:49:46;20.31;118.99
61641;HTU21D;62201;49.966;8.342;2023-09-18T01:52:12;20.29;118.99
61641;HTU21D;62201;49.966;8.342;2023-09-18T01:54:37;20.27;118.99
61641;HTU21D;62201;49.966;8.342;2023-09-18T01:57:03;20.30;118.99
61641;HTU21D;62201;49.966;8.342;2023-09-18T01:59:30;20.30;118.99
61641;HTU21D;62201;49.966;8.342;2023-09-18T02:01:55;20.24;118.99
61641;HTU21D;62201;49.966;8.342;2023-09-18T02:04:22;20.06;118.99
61641;HTU21D;62201;49.966;8.342;2023-09-18T02:06:48;19.92;118.99
61641;HTU21D;62201;49.966;8.342;2023-09-18T02:09:14;19.86;118.99
61641;HTU21D;62201;49.966;8.342;2023-09-18T02:11:42;19.82;118.99
61641;HTU21D;62201;49.966;8.342;2023-09-18T02:14:09;19.82;118.99
61641;HTU21D;62201;49.966;8.342;2023-09-18T02:16:36;19.71;118.99
61641;HTU21D;62201;49.966;8.342;2023-09-18T02:19:04;19.71;118.99
61641;HTU21D;62201;49.966;8.342;2023-09-18T02:21:30;19.65;118.99
61641;HTU21D;62201;49.966;8.342;2023-09-18T02:23:56;19.60;118.99
61641;HTU21D;62201;49.966;8.342;2023-09-18T02:26:23;19.66;118.99
61641;HTU21D;62201;49.966;8.342;2023-09-18T02:28:51;19.62;118.99
61641;HTU21D;62201;49.966;8.342;2023-09-18T02:31:17;19.60;118.99
61641;HTU21D;62201;49.966;8.342;2023-09-18T02:33:43;19.59;118.99
61641;HTU21D;62201;49.966;8.342;2023-09-18T02:36:08;19.58;118.99
61641;HTU21D;62201;49.966;8.342;2023-09-18T02:38:34;19.60;118.99
61641;HTU21D;62201;49.966;8.342;2023-09-18T02:41:00;19.66;118.99
61641;HTU21D;62201;49.966;8.342;2023-09-18T02:43:25;19.67;118.99
61641;HTU21D;62201;49.966;8.342;2023-09-18T02:45:51;19.66;118.99
61641;HTU21D;62201;49.966;8.342;2023-09-18T02:48:17;19.62;118.99
61641;HTU21D;62201;49.966;8.342;2023-09-18T02:50:43;19.59;118.99
61641;HTU21D;62201;49.966;8.342;2023-09-18T02:53:25;19.54;118.99
61641;HTU21D;62201;49.966;8.342;2023-09-18T02:55:51;19.51;118.99
61641;HTU21D;62201;49.966;8.342;2023-09-18T02:58:17;19.43;118.99
61641;HTU21D;62201;49.966;8.342;2023-09-18T03:00:45;19.42;118.99
61641;HTU21D;62201;49.966;8.342;2023-09-18T03:03:11;19.42;118.99
61641;HTU21D;62201;49.966;8.342;2023-09-18T03:05:37;19.46;118.99
61641;HTU21D;62201;49.966;8.342;2023-09-18T03:08:03;19.47;118.99
61641;HTU21D;62201;49.966;8.342;2023-09-18T03:10:33;19.50;118.99
61641;HTU21D;62201;49.966;8.342;2023-09-18T03:12:59;19.51;118.99
61641;HTU21D;62201;49.966;8.342;2023-09-18T03:15:25;19.47;118.99
61641;HTU21D;62201;49.966;8.342;2023-09-18T03:17:50;19.46;118.99
61641;HTU21D;62201;49.966;8.342;2023-09-18T03:20:16;19.45;118.99
61641;HTU21D;62201;49.966;8.342;2023-09-18T03:22:41;19.44;118.99
61641;HTU21D;62201;49.966;8.342;2023-09-18T03:25:07;19.43;118.99
61641;HTU21D;62201;49.966;8.342;2023-09-18T03:27:32;19.40;118.99
61641;HTU21D;62201;49.966;8.342;2023-09-18T03:29:58;19.39;118.99
61641;HTU21D;62201;49.966;8.342;2023-09-18T03:32:23;19.39;118.99
61641;HTU21D;62201;49.966;8.342;2023-09-18T03:34:53;19.40;118.99
61641;HTU21D;62201;49.966;8.342;2023-09-18T03:37:18;19.37;118.99
61641;HTU21D;62201;49.966;8.342;2023-09-18T03:39:44;19.36;118.99
61641;HTU21D;62201;49.966;8.342;2023-09-18T03:42:09;19.36;118.99
61641;HTU21D;62201;49.966;8.342;2023-09-18T03:44:35;19.35;118.99
61641;HTU21D;62201;49.966;8.342;2023-09-18T03:47:00;19.33;118.99
61641;HTU21D;62201;49.966;8.342;2023-09-18T03:49:27;19.33;118.99
61641;HTU21D;62201;49.966;8.342;2023-09-18T03:51:53;19.28;118.99
61641;HTU21D;62201;49.966;8.342;2023-09-18T03:54:18;19.23;118.99
61641;HTU21D;62201;49.966;8.342;2023-09-18T03:56:44;19.24;118.99
61641;HTU21D;62201;49.966;8.342;2023-09-18T03:59:11;19.27;118.99
61641;HTU21D;62201;49.966;8.342;2023-09-18T04:01:36;19.28;118.99
61641;HTU21D;62201;49.966;8.342;2023-09-18T04:04:02;19.25;118.99
61641;HTU21D;62201;49.966;8.342;2023-09-18T04:06:36;19.23;118.99
61641;HTU21D;62201;49.966;8.342;2023-09-18T04:09:02;19.27;118.99
61641;HTU21D;62201;49.966;8.342;2023-09-18T04:11:27;19.27;118.99
61641;HTU21D;62201;49.966;8.342;2023-09-18T04:13:53;19.26;118.99
61641;HTU21D;62201;49.966;8.342;2023-09-18T04:16:19;19.27;118.99
61641;HTU21D;62201;49.966;8.342;2023-09-18T04:18:44;19.30;118.99
61641;HTU21D;62201;49.966;8.342;2023-09-18T04:21:09;19.33;118.99
61641;HTU21D;62201;49.966;8.342;2023-09-18T04:23:35;19.35;118.99
61641;HTU21D;62201;49.966;8.342;2023-09-18T04:26:02;19.37;118.99
61641;HTU21D;62201;49.966;8.342;2023-09-18T04:28:27;19.39;118.99
61641;HTU21D;62201;49.966;8.342;2023-09-18T04:30:52;19.40;118.99
61641;HTU21D;62201;49.966;8.342;2023-09-18T04:33:18;19.43;118.99
61641;HTU21D;62201;49.966;8.342;2023-09-18T04:35:44;19.46;118.99
61641;HTU21D;62201;49.966;8.342;2023-09-18T04:38:09;19.47;118.99
61641;HTU21D;62201;49.966;8.342;2023-09-18T04:40:40;19.45;118.99
61641;HTU21D;62201;49.966;8.342;2023-09-18T04:43:05;19.46;118.99
61641;HTU21D;62201;49.966;8.342;2023-09-18T04:45:31;19.50;118.99
61641;HTU21D;62201;49.966;8.342;2023-09-18T04:47:57;19.48;118.99
61641;HTU21D;62201;49.966;8.342;2023-09-18T04:50:23;19.51;118.99
61641;HTU21D;62201;49.966;8.342;2023-09-18T04:52:48;19.53;118.99
61641;HTU21D;62201;49.966;8.342;2023-09-18T04:55:16;19.51;118.99
61641;HTU21D;62201;49.966;8.342;2023-09-18T04:57:41;19.51;118.99
61641;HTU21D;62201;49.966;8.342;2023-09-18T05:00:07;19.55;118.99
61641;HTU21D;62201;49.966;8.342;2023-09-18T05:02:34;19.52;118.99
61641;HTU21D;62201;49.966;8.342;2023-09-18T05:05:00;19.53;118.99
61641;HTU21D;62201;49.966;8.342;2023-09-18T05:07:26;19.52;118.99
61641;HTU21D;62201;49.966;8.342;2023-09-18T05:09:52;19.48;118.99
61641;HTU21D;62201;49.966;8.342;2023-09-18T05:12:17;19.47;118.99
61641;HTU21D;62201;49.966;8.342;2023-09-18T05:14:43;19.46;118.99
61641;HTU21D;62201;49.966;8.342;2023-09-18T05:17:10;19.46;118.99
61641;HTU21D;62201;49.966;8.342;2023-09-18T05:19:36;19.45;118.99
61641;HTU21D;62201;49.966;8.342;2023-09-18T05:22:01;19.43;118.99
61641;HTU21D;62201;49.966;8.342;2023-09-18T05:24:28;19.44;118.99
61641;HTU21D;62201;49.966;8.342;2023-09-18T05:26:54;19.45;118.99
61641;HTU21D;62201;49.966;8.342;2023-09-18T05:29:20;19.46;118.99
61641;HTU21D;62201;49.966;8.342;2023-09-18T05:31:46;19.46;118.99
61641;HTU21D;62201;49.966;8.342;2023-09-18T05:34:12;19.51;118.99
61641;HTU21D;62201;49.966;8.342;2023-09-18T05:36:37;19.51;118.99
61641;HTU21D;62201;49.966;8.342;2023-09-18T05:39:03;19.51;118.99
61641;HTU21D;62201;49.966;8.342;2023-09-18T05:41:28;19.52;118.99
61641;HTU21D;62201;49.966;8.342;2023-09-18T05:43:55;19.68;118.99
61641;HTU21D;62201;49.966;8.342;2023-09-18T05:46:20;19.79;118.99
61641;HTU21D;62201;49.966;8.342;2023-09-18T05:48:46;19.85;118.99
61641;HTU21D;62201;49.966;8.342;2023-09-18T05:51:11;19.97;118.99
61641;HTU21D;62201;49.966;8.342;2023-09-18T05:53:36;19.97;118.99
61641;HTU21D;62201;49.966;8.342;2023-09-18T05:56:03;19.95;118.99
61641;HTU21D;62201;49.966;8.342;2023-09-18T05:58:31;19.94;118.99
61641;HTU21D;62201;49.966;8.342;2023-09-18T06:00:58;19.92;118.99
61641;HTU21D;62201;49.966;8.342;2023-09-18T06:03:25;19.92;118.99
61641;HTU21D;62201;49.966;8.342;2023-09-18T06:05:51;19.92;118.99
61641;HTU21D;62201;49.966;8.342;2023-09-18T06:08:16;19.92;118.99
61641;HTU21D;62201;49.966;8.342;2023-09-18T06:10:41;19.92;118.99
61641;HTU21D;62201;49.966;8.342;2023-09-18T06:13:07;19.92;118.99
61641;HTU21D;62201;49.966;8.342;2023-09-18T06:15:32;19.92;118.99
61641;HTU21D;62201;49.966;8.342;2023-09-18T06:17:58;19.92;118.99
61641;HTU21D;62201;49.966;8.342;2023-09-18T06:20:23;19.91;118.99
61641;HTU21D;62201;49.966;8.342;2023-09-18T06:22:48;19.91;118.99
61641;HTU21D;62201;49.966;8.342;2023-09-18T06:25:14;19.92;118.99
61641;HTU21D;62201;49.966;8.342;2023-09-18T06:27:41;19.94;118.99
61641;HTU21D;62201;49.966;8.342;2023-09-18T06:30:07;19.95;118.99
61641;HTU21D;62201;49.966;8.342;2023-09-18T06:32:32;19.94;118.99
61641;HTU21D;62201;49.966;8.342;2023-09-18T06:34:58;19.96;118.99
61641;HTU21D;62201;49.966;8.342;2023-09-18T06:37:24;19.95;118.99
61641;HTU21D;62201;49.966;8.342;2023-09-18T06:39:50;19.97;118.99
61641;HTU21D;62201;49.966;8.342;2023-09-18T06:42:15;19.99;118.99
61641;HTU21D;62201;49.966;8.342;2023-09-18T06:44:41;19.98;118.99
61641;HTU21D;62201;49.966;8.342;2023-09-18T06:47:07;19.97;118.99
61641;HTU21D;62201;49.966;8.342;2023-09-18T06:49:32;19.98;118.99
61641;HTU21D;62201;49.966;8.342;2023-09-18T06:51:57;19.98;118.99
61641;HTU21D;62201;49.966;8.342;2023-09-18T06:54:23;20.02;118.99
61641;HTU21D;62201;49.966;8.342;2023-09-18T06:56:49;20.05;118.99
61641;HTU21D;62201;49.966;8.342;2023-09-18T06:59:14;20.11;118.99
61641;HTU21D;62201;49.966;8.342;2023-09-18T07:01:40;20.17;118.99
61641;HTU21D;62201;49.966;8.342;2023-09-18T07:04:07;20.25;118.99
61641;HTU21D;62201;49.966;8.342;2023-09-18T07:06:33;20.33;118.99
61641;HTU21D;62201;49.966;8.342;2023-09-18T07:08:58;20.40;118.99
61641;HTU21D;62201;49.966;8.342;2023-09-18T07:11:24;20.46;118.99
61641;HTU21D;62201;49.966;8.342;2023-09-18T07:13:50;20.54;118.99
61641;HTU21D;62201;49.966;8.342;2023-09-18T07:16:15;20.57;118.99
61641;HTU21D;62201;49.966;8.342;2023-09-18T07:18:41;20.62;118.99
61641;HTU21D;62201;49.966;8.342;2023-09-18T07:21:07;20.65;118.99
61641;HTU21D;62201;49.966;8.342;2023-09-18T07:23:32;20.72;118.99
61641;HTU21D;62201;49.966;8.342;2023-09-18T07:26:00;20.77;118.99
61641;HTU21D;62201;49.966;8.342;2023-09-18T07:28:26;20.85;118.99
61641;HTU21D;62201;49.966;8.342;2023-09-18T07:30:51;20.91;118.99
61641;HTU21D;62201;49.966;8.342;2023-09-18T07:33:17;20.94;118.99
61641;HTU21D;62201;49.966;8.342;2023-09-18T07:35:49;20.92;118.99
61641;HTU21D;62201;49.966;8.342;2023-09-18T07:38:16;20.93;118.99
61641;HTU21D;62201;49.966;8.342;2023-09-18T07:40:44;20.94;118.99
61641;HTU21D;62201;49.966;8.342;2023-09-18T07:43:10;20.95;118.99
61641;HTU21D;62201;49.966;8.342;2023-09-18T07:45:38;20.93;118.99
61641;HTU21D;62201;49.966;8.342;2023-09-18T07:48:04;20.94;118.99
61641;HTU21D;62201;49.966;8.342;2023-09-18T07:50:29;21.00;118.99
61641;HTU21D;62201;49.966;8.342;2023-09-18T07:52:57;21.04;118.99
61641;HTU21D;62201;49.966;8.342;2023-09-18T07:55:22;21.09;118.99
61641;HTU21D;62201;49.966;8.342;2023-09-18T07:57:47;21.19;118.99
61641;HTU21D;62201;49.966;8.342;2023-09-18T08:00:14;21.28;118.99
61641;HTU21D;62201;49.966;8.342;2023-09-18T08:02:40;21.34;118.99
61641;HTU21D;62201;49.966;8.342;2023-09-18T08:05:07;21.38;118.99
61641;HTU21D;62201;49.966;8.342;2023-09-18T08:07:34;21.39;118.99
61641;HTU21D;62201;49.966;8.342;2023-09-18T08:10:01;21.48;118.99
61641;HTU21D;62201;49.966;8.342;2023-09-18T08:12:27;21.54;118.99
61641;HTU21D;62201;49.966;8.342;2023-09-18T08:14:52;21.72;118.99
61641;HTU21D;62201;49.966;8.342;2023-09-18T08:17:18;21.81;118.99
61641;HTU21D;62201;49.966;8.342;2023-09-18T08:19:43;21.91;118.99
61641;HTU21D;62201;49.966;8.342;2023-09-18T08:22:09;21.99;118.99
61641;HTU21D;62201;49.966;8.342;2023-09-18T08:24:37;22.17;118.99
61641;HTU21D;62201;49.966;8.342;2023-09-18T08:27:02;22.22;118.99
61641;HTU21D;62201;49.966;8.342;2023-09-18T08:29:28;22.22;118.99
61641;HTU21D;62201;49.966;8.342;2023-09-18T08:31:54;22.18;118.99
61641;HTU21D;62201;49.966;8.342;2023-09-18T08:34:19;22.19;118.99
61641;HTU21D;62201;49.966;8.342;2023-09-18T08:36:44;22.20;118.99
61641;HTU21D;62201;49.966;8.342;2023-09-18T08:39:10;22.21;118.99
61641;HTU21D;62201;49.966;8.342;2023-09-18T08:41:40;22.20;118.99
61641;HTU21D;62201;49.966;8.342;2023-09-18T08:44:07;22.22;118.99
61641;HTU21D;62201;49.966;8.342;2023-09-18T08:46:33;22.21;118.99
61641;HTU21D;62201;49.966;8.342;2023-09-18T08:49:00;22.25;118.99
61641;HTU21D;62201;49.966;8.342;2023-09-18T08:51:26;22.27;118.99
61641;HTU21D;62201;49.966;8.342;2023-09-18T08:53:53;22.20;118.99
61641;HTU21D;62201;49.966;8.342;2023-09-18T08:56:21;22.14;118.99
61641;HTU21D;62201;49.966;8.342;2023-09-18T08:58:46;22.17;118.99
61641;HTU21D;62201;49.966;8.342;2023-09-18T09:01:12;22.12;118.99
61641;HTU21D;62201;49.966;8.342;2023-09-18T09:03:39;22.16;118.99
61641;HTU21D;62201;49.966;8.342;2023-09-18T09:06:09;22.20;118.99
61641;HTU21D;62201;49.966;8.342;2023-09-18T09:08:35;22.20;116.38
61641;HTU21D;62201;49.966;8.342;2023-09-18T09:11:01;22.24;116.00
61641;HTU21D;62201;49.966;8.342;2023-09-18T09:13:27;22.38;116.39
61641;HTU21D;62201;49.966;8.342;2023-09-18T09:15:54;22.49;113.28
61641;HTU21D;62201;49.966;8.342;2023-09-18T09:18:21;22.56;111.16
61641;HTU21D;62201;49.966;8.342;2023-09-18T09:23:22;22.75;110.08
61641;HTU21D;62201;49.966;8.342;2023-09-18T09:25:48;22.73;110.30
61641;HTU21D;62201;49.966;8.342;2023-09-18T09:28:13;22.77;112.26
61641;HTU21D;62201;49.966;8.342;2023-09-18T09:30:38;22.83;110.10
61641;HTU21D;62201;49.966;8.342;2023-09-18T09:33:05;22.72;109.75
61641;HTU21D;62201;49.966;8.342;2023-09-18T09:35:33;22.58;111.39
61641;HTU21D;62201;49.966;8.342;2023-09-18T09:38:12;22.50;111.15
61641;HTU21D;62201;49.966;8.342;2023-09-18T09:40:42;22.41;112.97
61641;HTU21D;62201;49.966;8.342;2023-09-18T09:43:12;22.34;112.94
61641;HTU21D;62201;49.966;8.342;2023-09-18T09:45:42;22.27;112.13
61641;HTU21D;62201;49.966;8.342;2023-09-18T09:48:08;22.26;113.09
61641;HTU21D;62201;49.966;8.342;2023-09-18T09:50:34;22.22;113.19
61641;HTU21D;62201;49.966;8.342;2023-09-18T09:53:11;22.23;113.81
61641;HTU21D;62201;49.966;8.342;2023-09-18T09:55:37;22.27;113.00
61641;HTU21D;62201;49.966;8.342;2023-09-18T09:58:05;22.35;111.00
61641;HTU21D;62201;49.966;8.342;2023-09-18T10:00:32;22.44;111.88
61641;HTU21D;62201;49.966;8.342;2023-09-18T10:03:06;22.57;111.42
61641;HTU21D;62201;49.966;8.342;2023-09-18T10:05:35;22.68;110.00
61641;HTU21D;62201;49.966;8.342;2023-09-18T10:08:23;22.67;108.10
61641;HTU21D;62201;49.966;8.342;2023-09-18T10:10:52;22.69;109.64
61641;HTU21D;62201;49.966;8.342;2023-09-18T10:13:29;22.72;109.55
61641;HTU21D;62201;49.966;8.342;2023-09-18T10:15:56;22.72;108.99
61641;HTU21D;62201;49.966;8.342;2023-09-18T10:21:21;22.63;108.16
61641;HTU21D;62201;49.966;8.342;2023-09-18T10:26:28;22.44;109.03
61641;HTU21D;62201;49.966;8.342;2023-09-18T10:28:55;22.39;109.33
61641;HTU21D;62201;49.966;8.342;2023-09-18T10:31:25;22.39;110.50
61641;HTU21D;62201;49.966;8.342;2023-09-18T10:33:52;22.39;111.13
61641;HTU21D;62201;49.966;8.342;2023-09-18T10:36:19;22.44;111.45
61641;HTU21D;62201;49.966;8.342;2023-09-18T10:38:46;22.50;110.90
61641;HTU21D;62201;49.966;8.342;2023-09-18T10:41:16;22.67;109.03
61641;HTU21D;62201;49.966;8.342;2023-09-18T10:43:45;22.82;109.49
61641;HTU21D;62201;49.966;8.342;2023-09-18T10:46:11;22.83;105.76
61641;HTU21D;62201;49.966;8.342;2023-09-18T10:48:42;22.90;105.15
61641;HTU21D;62201;49.966;8.342;2023-09-18T10:51:08;22.92;106.17
61641;HTU21D;62201;49.966;8.342;2023-09-18T10:53:34;22.96;104.05
61641;HTU21D;62201;49.966;8.342;2023-09-18T10:56:01;22.88;106.03
61641;HTU21D;62201;49.966;8.342;2023-09-18T10:58:29;22.84;103.74
61641;HTU21D;62201;49.966;8.342;2023-09-18T11:00:55;22.78;104.76
61641;HTU21D;62201;49.966;8.342;2023-09-18T11:03:23;22.76;104.97
61641;HTU21D;62201;49.966;8.342;2023-09-18T11:06:02;22.70;104.98
61641;HTU21D;62201;49.966;8.342;2023-09-18T11:08:32;22.71;104.82
61641;HTU21D;62201;49.966;8.342;2023-09-18T11:13:41;22.84;105.02
61641;HTU21D;62201;49.966;8.342;2023-09-18T11:19:11;22.92;101.45
61641;HTU21D;62201;49.966;8.342;2023-09-18T11:21:37;22.94;103.02
61641;HTU21D;62201;49.966;8.342;2023-09-18T11:26:35;23.01;100.41
61641;HTU21D;62201;49.966;8.342;2023-09-18T11:29:05;23.05;101.49
61641;HTU21D;62201;49.966;8.342;2023-09-18T11:31:54;23.06;100.88
61641;HTU21D;62201;49.966;8.342;2023-09-18T11:34:21;23.12;101.51
61641;HTU21D;62201;49.966;8.342;2023-09-18T11:36:48;23.25;101.03
61641;HTU21D;62201;49.966;8.342;2023-09-18T11:39:36;23.34;99.69
61641;HTU21D;62201;49.966;8.342;2023-09-18T11:42:10;23.42;100.19
61641;HTU21D;62201;49.966;8.342;2023-09-18T11:44:35;23.39;98.52
61641;HTU21D;62201;49.966;8.342;2023-09-18T11:47:10;23.34;99.01
61641;HTU21D;62201;49.966;8.342;2023-09-18T11:49:56;23.27;99.30
61641;HTU21D;62201;49.966;8.342;2023-09-18T11:52:25;23.28;100.10
61641;HTU21D;62201;49.966;8.342;2023-09-18T11:54:51;23.16;100.80
61641;HTU21D;62201;49.966;8.342;2023-09-18T11:57:20;23.13;101.96
61641;HTU21D;62201;49.966;8.342;2023-09-18T11:59:45;23.08;102.93
61641;HTU21D;62201;49.966;8.342;2023-09-18T12:02:33;23.05;102.65
61641;HTU21D;62201;49.966;8.342;2023-09-18T12:05:14;23.20;101.77
61641;HTU21D;62201;49.966;8.342;2023-09-18T12:07:41;23.28;101.22
61641;HTU21D;62201;49.966;8.342;2023-09-18T12:10:15;23.43;99.65
61641;HTU21D;62201;49.966;8.342;2023-09-18T12:12:42;23.68;96.18
61641;HTU21D;62201;49.966;8.342;2023-09-18T12:15:11;23.88;95.74
61641;HTU21D;62201;49.966;8.342;2023-09-18T12:17:36;24.25;92.17
61641;HTU21D;62201;49.966;8.342;2023-09-18T12:20:02;24.49;89.77
61641;HTU21D;62201;49.966;8.342;2023-09-18T12:22:30;24.90;86.60
61641;HTU21D;62201;49.966;8.342;2023-09-18T12:25:13;25.38;83.19
61641;HTU21D;62201;49.966;8.342;2023-09-18T12:27:43;25.60;81.44
61641;HTU21D;62201;49.966;8.342;2023-09-18T12:30:10;25.97;77.92
61641;HTU21D;62201;49.966;8.342;2023-09-18T12:32:37;25.86;78.69
61641;HTU21D;62201;49.966;8.342;2023-09-18T12:35:05;25.78;76.38
61641;HTU21D;62201;49.966;8.342;2023-09-18T12:37:34;25.54;77.69
61641;HTU21D;62201;49.966;8.342;2023-09-18T12:39:59;25.18;77.57
61641;HTU21D;62201;49.966;8.342;2023-09-18T12:42:24;25.09;78.28
61641;HTU21D;62201;49.966;8.342;2023-09-18T12:44:52;25.08;79.32
61641;HTU21D;62201;49.966;8.342;2023-09-18T12:47:17;24.92;80.69
61641;HTU21D;62201;49.966;8.342;2023-09-18T12:49:43;24.93;81.81
61641;HTU21D;62201;49.966;8.342;2023-09-18T12:52:08;24.88;82.73
61641;HTU21D;62201;49.966;8.342;2023-09-18T12:54:44;24.94;83.09
61641;HTU21D;62201;49.966;8.342;2023-09-18T12:57:14;24.90;83.31
61641;HTU21D;62201;49.966;8.342;2023-09-18T12:59:40;24.56;81.99
61641;HTU21D;62201;49.966;8.342;2023-09-18T13:02:06;24.47;83.39
61641;HTU21D;62201;49.966;8.342;2023-09-18T13:04:36;24.44;83.16
61641;HTU21D;62201;49.966;8.342;2023-09-18T13:07:03;24.51;84.19
61641;HTU21D;62201;49.966;8.342;2023-09-18T13:09:29;24.53;84.19
61641;HTU21D;62201;49.966;8.342;2023-09-18T13:11:56;24.57;82.46
61641;HTU21D;62201;49.966;8.342;2023-09-18T13:14:22;24.66;81.88
61641;HTU21D;62201;49.966;8.342;2023-09-18T13:16:47;24.90;80.06
61641;HTU21D;62201;49.966;8.342;2023-09-18T13:19:12;25.02;79.55
61641;HTU21D;62201;49.966;8.342;2023-09-18T13:21:38;24.93;80.79
61641;HTU21D;62201;49.966;8.342;2023-09-18T13:24:07;24.85;81.14
61641;HTU21D;62201;49.966;8.342;2023-09-18T13:26:32;24.69;82.93
61641;HTU21D;62201;49.966;8.342;2023-09-18T13:28:57;24.70;83.22
61641;HTU21D;62201;49.966;8.342;2023-09-18T13:31:23;24.75;83.70
61641;HTU21D;62201;49.966;8.342;2023-09-18T13:33:48;24.90;83.81
61641;HTU21D;62201;49.966;8.342;2023-09-18T13:36:14;24.99;78.69
61641;HTU21D;62201;49.966;8.342;2023-09-18T13:38:40;25.07;76.34
61641;HTU21D;62201;49.966;8.342;2023-09-18T13:41:06;25.19;76.85
61641;HTU21D;62201;49.966;8.342;2023-09-18T13:43:31;25.20;74.59
61641;HTU21D;62201;49.966;8.342;2023-09-18T13:46:00;25.17;74.15
61641;HTU21D;62201;49.966;8.342;2023-09-18T13:48:25;25.17;74.06
61641;HTU21D;62201;49.966;8.342;2023-09-18T13:50:51;25.17;73.57
61641;HTU21D;62201;49.966;8.342;2023-09-18T13:53:18;25.22;75.30
61641;HTU21D;62201;49.966;8.342;2023-09-18T13:55:43;25.22;76.76
61641;HTU21D;62201;49.966;8.342;2023-09-18T13:58:09;25.54;76.02
61641;HTU21D;62201;49.966;8.342;2023-09-18T14:00:34;25.78;74.42
61641;HTU21D;62201;49.966;8.342;2023-09-18T14:03:01;26.49;70.07
61641;HTU21D;62201;49.966;8.342;2023-09-18T14:05:28;26.69;68.12
61641;HTU21D;62201;49.966;8.342;2023-09-18T14:07:55;26.46;69.92
61641;HTU21D;62201;49.966;8.342;2023-09-18T14:10:25;27.06;66.09
61641;HTU21D;62201;49.966;8.342;2023-09-18T14:12:50;27.13;65.75
61641;HTU21D;62201;49.966;8.342;2023-09-18T14:15:16;27.82;62.62
61641;HTU21D;62201;49.966;8.342;2023-09-18T14:17:41;26.80;64.02
61641;HTU21D;62201;49.966;8.342;2023-09-18T14:20:07;26.42;66.78
61641;HTU21D;62201;49.966;8.342;2023-09-18T14:22:33;26.46;65.72
61641;HTU21D;62201;49.966;8.342;2023-09-18T14:24:59;26.26;66.62
61641;HTU21D;62201;49.966;8.342;2023-09-18T14:27:24;26.17;67.42
61641;HTU21D;62201;49.966;8.342;2023-09-18T14:29:50;25.71;70.74
61641;HTU21D;62201;49.966;8.342;2023-09-18T14:32:15;25.50;70.41
61641;HTU21D;62201;49.966;8.342;2023-09-18T14:34:41;26.37;66.01
61641;HTU21D;62201;49.966;8.342;2023-09-18T14:37:07;25.94;66.80
61641;HTU21D;62201;49.966;8.342;2023-09-18T14:39:33;25.49;69.57
61641;HTU21D;62201;49.966;8.342;2023-09-18T14:41:58;25.14;72.35
61641;HTU21D;62201;49.966;8.342;2023-09-18T14:44:25;24.91;72.85
61641;HTU21D;62201;49.966;8.342;2023-09-18T14:46:52;24.74;74.20
61641;HTU21D;62201;49.966;8.342;2023-09-18T14:49:18;24.66;76.31
61641;HTU21D;62201;49.966;8.342;2023-09-18T14:51:43;25.03;74.06
61641;HTU21D;62201;49.966;8.342;2023-09-18T14:54:08;25.05;73.73
61641;HTU21D;62201;49.966;8.342;2023-09-18T14:56:34;24.98;74.91
61641;HTU21D;62201;49.966;8.342;2023-09-18T14:59:02;25.06;75.21
61641;HTU21D;62201;49.966;8.342;2023-09-18T15:01:27;25.00;75.33
61641;HTU21D;62201;49.966;8.342;2023-09-18T15:03:52;24.92;76.10
61641;HTU21D;62201;49.966;8.342;2023-09-18T15:06:18;24.76;76.12
61641;HTU21D;62201;49.966;8.342;2023-09-18T15:08:43;24.68;78.18
61641;HTU21D;62201;49.966;8.342;2023-09-18T15:11:10;24.57;84.57
61641;HTU21D;62201;49.966;8.342;2023-09-18T15:13:36;24.47;88.24
61641;HTU21D;62201;49.966;8.342;2023-09-18T15:16:04;24.34;88.27
61641;HTU21D;62201;49.966;8.342;2023-09-18T15:18:30;24.18;92.52
61641;HTU21D;62201;49.966;8.342;2023-09-18T15:20:55;24.15;94.40